sensor_id;sensor_type;location;lat;lon;timestamp;temperature;humidity
831;DHT22;397;50.564;7.272;2023-07-31T00:00:52;19.20;99.90
831;DHT22;397;50.564;7.272;2023-07-31T00:03:20;19.20;99.90
831;DHT22;397;50.564;7.272;2023-07-31T00:05:47;19.20;99.90
831;DHT22;397;50.564;7.272;2023-07-31T00:08:15;19.10;99.90
831;DHT22;397;50.564;7.272;2023-07-31T00:10:42;19.20;99.90
831;DHT22;397;50.564;7.272;2023-07-31T00:13:10;19.20;99.90
831;DHT22;397;50.564;7.272;2023-07-31T00:15:37;19.20;99.90
831;DHT22;397;50.564;7.272;2023-07-31T00:18:05;19.30;99.90
831;DHT22;397;50.564;7.272;2023-07-31T00:20:32;19.20;99.90
831;DHT22;397;50.564;7.272;2023-07-31T00:23:00;19.20;99.90
831;DHT22;397;50.564;7.272;2023-07-31T00:25:27;19.20;99.90
831;DHT22;397;50.564;7.272;2023-07-31T00:27:55;19.20;99.90
831;DHT22;397;50.564;7.272;2023-07-31T00:30:22;19.20;99.90
831;DHT22;397;50.564;7.272;2023-07-31T00:32:51;19.10;99.90
831;DHT22;397;50.564;7.272;2023-07-31T00:35:19;19.10;99.90
831;DHT22;397;50.564;7.272;2023-07-31T00:37:46;19.10;99.90
831;DHT22;397;50.564;7.272;2023-07-31T00:40:14;19.10;99.90
831;DHT22;397;50.564;7.272;2023-07-31T00:42:41;19.10;99.90
831;DHT22;397;50.564;7.272;2023-07-31T00:45:09;19.10;99.90
831;DHT22;397;50.564;7.272;2023-07-31T00:47:37;19.10;99.90
831;DHT22;397;50.564;7.272;2023-07-31T00:50:05;19.10;99.90
831;DHT22;397;50.564;7.272;2023-07-31T00:52:33;19.10;99.90
831;DHT22;397;50.564;7.272;2023-07-31T00:55:00;19.10;99.90
831;DHT22;397;50.564;7.272;2023-07-31T00:57:28;19.10;99.90
831;DHT22;397;50.564;7.272;2023-07-31T00:59:56;19.10;99.90
831;DHT22;397;50.564;7.272;2023-07-31T01:02:23;19.10;99.90
831;DHT22;397;50.564;7.272;2023-07-31T01:04:52;19.10;99.90
831;DHT22;397;50.564;7.272;2023-07-31T01:07:31;19.10;99.90
831;DHT22;397;50.564;7.272;2023-07-31T01:10:08;19.10;99.90
831;DHT22;397;50.564;7.272;2023-07-31T01:12:28;19.10;99.90
831;DHT22;397;50.564;7.272;2023-07-31T01:15:09;19.00;99.90
831;DHT22;397;50.564;7.272;2023-07-31T01:17:42;19.10;99.90
831;DHT22;397;50.564;7.272;2023-07-31T01:20:18;19.00;99.90
831;DHT22;397;50.564;7.272;2023-07-31T01:22:58;19.00;99.90
831;DHT22;397;50.564;7.272;2023-07-31T01:28:10;19.00;99.90
831;DHT22;397;50.564;7.272;2023-07-31T01:30:37;19.00;99.90
831;DHT22;397;50.564;7.272;2023-07-31T01:33:06;19.00;99.90
831;DHT22;397;50.564;7.272;2023-07-31T01:35:35;19.00;99.90
831;DHT22;397;50.564;7.272;2023-07-31T01:38:04;19.10;99.90
831;DHT22;397;50.564;7.272;2023-07-31T01:40:32;19.00;99.90
831;DHT22;397;50.564;7.272;2023-07-31T01:42:59;19.10;99.90
831;DHT22;397;50.564;7.272;2023-07-31T01:45:27;19.00;99.90
831;DHT22;397;50.564;7.272;2023-07-31T01:47:54;19.00;99.90
831;DHT22;397;50.564;7.272;2023-07-31T01:50:22;19.00;99.90
831;DHT22;397;50.564;7.272;2023-07-31T01:52:49;19.00;99.90
831;DHT22;397;50.564;7.272;2023-07-31T01:55:17;19.00;99.90
831;DHT22;397;50.564;7.272;2023-07-31T01:57:44;18.90;99.90
831;DHT22;397;50.564;7.272;2023-07-31T02:00:12;19.00;99.90
831;DHT22;397;50.564;7.272;2023-07-31T02:02:40;19.00;99.90
831;DHT22;397;50.564;7.272;2023-07-31T02:05:07;19.00;99.90
831;DHT22;397;50.564;7.272;2023-07-31T02:07:35;19.00;99.90
831;DHT22;397;50.564;7.272;2023-07-31T02:10:02;19.00;99.90
831;DHT22;397;50.564;7.272;2023-07-31T02:12:30;19.00;99.90
831;DHT22;397;50.564;7.272;2023-07-31T02:14:58;18.90;99.90
831;DHT22;397;50.564;7.272;2023-07-31T02:17:26;18.90;99.90
831;DHT22;397;50.564;7.272;2023-07-31T02:19:53;18.90;99.90
831;DHT22;397;50.564;7.272;2023-07-31T02:22:21;18.90;99.90
831;DHT22;397;50.564;7.272;2023-07-31T02:24:48;18.90;99.90
831;DHT22;397;50.564;7.272;2023-07-31T02:27:16;19.00;99.90
831;DHT22;397;50.564;7.272;2023-07-31T02:29:43;18.90;99.90
831;DHT22;397;50.564;7.272;2023-07-31T02:32:11;19.00;99.90
831;DHT22;397;50.564;7.272;2023-07-31T02:34:38;18.90;99.90
831;DHT22;397;50.564;7.272;2023-07-31T02:37:06;18.90;99.90
831;DHT22;397;50.564;7.272;2023-07-31T02:39:33;18.90;99.90
831;DHT22;397;50.564;7.272;2023-07-31T02:42:01;18.90;99.90
831;DHT22;397;50.564;7.272;2023-07-31T02:44:28;18.90;99.90
831;DHT22;397;50.564;7.272;2023-07-31T02:46:56;18.80;99.90
831;DHT22;397;50.564;7.272;2023-07-31T02:49:23;18.80;99.90
831;DHT22;397;50.564;7.272;2023-07-31T02:51:51;18.80;99.90
831;DHT22;397;50.564;7.272;2023-07-31T02:54:18;18.90;99.90
831;DHT22;397;50.564;7.272;2023-07-31T02:56:48;18.80;99.90
831;DHT22;397;50.564;7.272;2023-07-31T02:59:16;18.90;99.90
831;DHT22;397;50.564;7.272;2023-07-31T03:01:44;18.90;99.90
831;DHT22;397;50.564;7.272;2023-07-31T03:04:12;18.90;99.90
831;DHT22;397;50.564;7.272;2023-07-31T03:06:39;18.80;99.90
831;DHT22;397;50.564;7.272;2023-07-31T03:09:07;18.80;99.90
831;DHT22;397;50.564;7.272;2023-07-31T03:11:34;18.90;99.90
831;DHT22;397;50.564;7.272;2023-07-31T03:14:01;18.90;99.90
831;DHT22;397;50.564;7.272;2023-07-31T03:16:29;18.90;99.90
831;DHT22;397;50.564;7.272;2023-07-31T03:18:57;18.90;99.90
831;DHT22;397;50.564;7.272;2023-07-31T03:21:24;18.90;99.90
831;DHT22;397;50.564;7.272;2023-07-31T03:23:52;18.80;99.90
831;DHT22;397;50.564;7.272;2023-07-31T03:26:19;18.80;99.90
831;DHT22;397;50.564;7.272;2023-07-31T03:28:47;18.80;99.90
831;DHT22;397;50.564;7.272;2023-07-31T03:31:15;18.80;99.90
831;DHT22;397;50.564;7.272;2023-07-31T03:33:43;18.80;99.90
831;DHT22;397;50.564;7.272;2023-07-31T03:36:10;18.70;99.90
831;DHT22;397;50.564;7.272;2023-07-31T03:38:38;18.70;99.90
831;DHT22;397;50.564;7.272;2023-07-31T03:41:05;18.70;99.90
831;DHT22;397;50.564;7.272;2023-07-31T03:43:33;18.70;99.90
831;DHT22;397;50.564;7.272;2023-07-31T03:46:01;18.70;99.90
831;DHT22;397;50.564;7.272;2023-07-31T03:48:29;18.70;99.90
831;DHT22;397;50.564;7.272;2023-07-31T03:50:56;18.70;99.90
831;DHT22;397;50.564;7.272;2023-07-31T03:53:24;18.70;99.90
831;DHT22;397;50.564;7.272;2023-07-31T03:55:51;18.60;99.90
831;DHT22;397;50.564;7.272;2023-07-31T03:58:19;18.70;99.90
831;DHT22;397;50.564;7.272;2023-07-31T04:00:47;18.70;99.90
831;DHT22;397;50.564;7.272;2023-07-31T04:03:15;18.70;99.90
831;DHT22;397;50.564;7.272;2023-07-31T04:05:42;18.70;99.90
831;DHT22;397;50.564;7.272;2023-07-31T04:08:10;18.60;99.90
831;DHT22;397;50.564;7.272;2023-07-31T04:10:37;18.70;99.90
831;DHT22;397;50.564;7.272;2023-07-31T04:13:05;18.70;99.90
831;DHT22;397;50.564;7.272;2023-07-31T04:15:32;18.60;99.90
831;DHT22;397;50.564;7.272;2023-07-31T04:17:59;18.60;99.90
831;DHT22;397;50.564;7.272;2023-07-31T04:20:27;18.60;99.90
831;DHT22;397;50.564;7.272;2023-07-31T04:22:54;18.70;99.90
831;DHT22;397;50.564;7.272;2023-07-31T04:25:22;18.70;99.90
831;DHT22;397;50.564;7.272;2023-07-31T04:27:49;18.70;99.90
831;DHT22;397;50.564;7.272;2023-07-31T04:30:17;18.70;99.90
831;DHT22;397;50.564;7.272;2023-07-31T04:32:44;18.70;99.90
831;DHT22;397;50.564;7.272;2023-07-31T04:35:12;18.70;99.90
831;DHT22;397;50.564;7.272;2023-07-31T04:37:39;18.70;99.90
831;DHT22;397;50.564;7.272;2023-07-31T04:40:08;18.70;99.90
831;DHT22;397;50.564;7.272;2023-07-31T04:42:36;18.80;99.90
831;DHT22;397;50.564;7.272;2023-07-31T04:45:04;18.70;99.90
831;DHT22;397;50.564;7.272;2023-07-31T04:47:32;18.70;99.90
831;DHT22;397;50.564;7.272;2023-07-31T04:49:59;18.80;99.90
831;DHT22;397;50.564;7.272;2023-07-31T04:52:27;18.80;99.90
831;DHT22;397;50.564;7.272;2023-07-31T04:54:54;18.80;99.90
831;DHT22;397;50.564;7.272;2023-07-31T04:57:22;18.80;99.90
831;DHT22;397;50.564;7.272;2023-07-31T04:59:49;18.80;99.90
831;DHT22;397;50.564;7.272;2023-07-31T05:02:17;18.80;99.90
831;DHT22;397;50.564;7.272;2023-07-31T05:04:44;18.80;99.90
831;DHT22;397;50.564;7.272;2023-07-31T05:07:12;18.80;99.90
831;DHT22;397;50.564;7.272;2023-07-31T05:09:39;18.80;99.90
831;DHT22;397;50.564;7.272;2023-07-31T05:12:07;18.90;99.90
831;DHT22;397;50.564;7.272;2023-07-31T05:14:35;18.90;99.90
831;DHT22;397;50.564;7.272;2023-07-31T05:17:02;18.90;99.90
831;DHT22;397;50.564;7.272;2023-07-31T05:19:30;18.90;99.90
831;DHT22;397;50.564;7.272;2023-07-31T05:21:58;19.00;99.90
831;DHT22;397;50.564;7.272;2023-07-31T05:24:25;19.00;99.90
831;DHT22;397;50.564;7.272;2023-07-31T05:26:53;19.10;99.90
831;DHT22;397;50.564;7.272;2023-07-31T05:29:20;19.10;99.90
831;DHT22;397;50.564;7.272;2023-07-31T05:31:48;19.10;99.90
831;DHT22;397;50.564;7.272;2023-07-31T05:34:15;19.10;99.90
831;DHT22;397;50.564;7.272;2023-07-31T05:36:43;19.20;99.90
831;DHT22;397;50.564;7.272;2023-07-31T05:39:10;19.20;99.90
831;DHT22;397;50.564;7.272;2023-07-31T05:41:38;19.30;99.90
831;DHT22;397;50.564;7.272;2023-07-31T05:44:06;19.30;99.90
831;DHT22;397;50.564;7.272;2023-07-31T05:46:33;19.40;99.90
831;DHT22;397;50.564;7.272;2023-07-31T05:49:01;19.40;99.90
831;DHT22;397;50.564;7.272;2023-07-31T05:51:29;19.40;99.90
831;DHT22;397;50.564;7.272;2023-07-31T05:53:56;19.50;99.90
831;DHT22;397;50.564;7.272;2023-07-31T05:56:24;19.50;99.90
831;DHT22;397;50.564;7.272;2023-07-31T05:58:53;19.50;99.90
831;DHT22;397;50.564;7.272;2023-07-31T06:01:20;19.50;99.90
831;DHT22;397;50.564;7.272;2023-07-31T06:03:48;19.40;99.90
831;DHT22;397;50.564;7.272;2023-07-31T06:06:15;19.40;99.90
831;DHT22;397;50.564;7.272;2023-07-31T06:08:43;19.40;99.90
831;DHT22;397;50.564;7.272;2023-07-31T06:11:11;19.50;99.90
831;DHT22;397;50.564;7.272;2023-07-31T06:13:38;19.50;99.90
831;DHT22;397;50.564;7.272;2023-07-31T06:16:06;19.40;99.90
831;DHT22;397;50.564;7.272;2023-07-31T06:18:33;19.40;99.90
831;DHT22;397;50.564;7.272;2023-07-31T06:21:01;19.40;99.90
831;DHT22;397;50.564;7.272;2023-07-31T06:23:28;19.40;99.90
831;DHT22;397;50.564;7.272;2023-07-31T06:25:56;19.40;99.90
831;DHT22;397;50.564;7.272;2023-07-31T06:28:30;19.30;99.90
831;DHT22;397;50.564;7.272;2023-07-31T06:30:58;19.10;99.90
831;DHT22;397;50.564;7.272;2023-07-31T06:33:26;19.10;99.90
831;DHT22;397;50.564;7.272;2023-07-31T06:35:54;19.10;99.90
831;DHT22;397;50.564;7.272;2023-07-31T06:38:26;19.00;99.90
831;DHT22;397;50.564;7.272;2023-07-31T06:40:54;19.00;99.90
831;DHT22;397;50.564;7.272;2023-07-31T06:43:22;18.90;99.90
831;DHT22;397;50.564;7.272;2023-07-31T06:45:49;19.00;99.90
831;DHT22;397;50.564;7.272;2023-07-31T06:48:17;19.20;99.90
831;DHT22;397;50.564;7.272;2023-07-31T06:50:45;19.30;99.90
831;DHT22;397;50.564;7.272;2023-07-31T06:53:12;19.30;99.90
831;DHT22;397;50.564;7.272;2023-07-31T06:55:40;19.20;99.90
831;DHT22;397;50.564;7.272;2023-07-31T06:58:07;19.20;99.90
831;DHT22;397;50.564;7.272;2023-07-31T07:00:35;19.30;99.90
831;DHT22;397;50.564;7.272;2023-07-31T07:03:02;19.40;99.90
831;DHT22;397;50.564;7.272;2023-07-31T07:05:30;19.30;99.90
831;DHT22;397;50.564;7.272;2023-07-31T07:07:57;19.40;99.90
831;DHT22;397;50.564;7.272;2023-07-31T07:10:25;19.50;99.90
831;DHT22;397;50.564;7.272;2023-07-31T07:12:53;19.50;99.90
831;DHT22;397;50.564;7.272;2023-07-31T07:15:21;19.50;99.90
831;DHT22;397;50.564;7.272;2023-07-31T07:17:49;19.50;99.90
831;DHT22;397;50.564;7.272;2023-07-31T07:20:16;19.60;99.90
831;DHT22;397;50.564;7.272;2023-07-31T07:22:46;19.70;99.90
831;DHT22;397;50.564;7.272;2023-07-31T07:25:13;19.80;99.90
831;DHT22;397;50.564;7.272;2023-07-31T07:27:41;19.90;99.90
831;DHT22;397;50.564;7.272;2023-07-31T07:30:09;20.10;99.90
831;DHT22;397;50.564;7.272;2023-07-31T07:32:37;20.20;99.90
831;DHT22;397;50.564;7.272;2023-07-31T07:35:05;20.50;99.90
831;DHT22;397;50.564;7.272;2023-07-31T07:37:32;20.60;99.90
831;DHT22;397;50.564;7.272;2023-07-31T07:40:00;20.80;99.90
831;DHT22;397;50.564;7.272;2023-07-31T07:42:27;20.60;99.90
831;DHT22;397;50.564;7.272;2023-07-31T07:44:55;20.60;99.90
831;DHT22;397;50.564;7.272;2023-07-31T07:47:22;20.40;99.90
831;DHT22;397;50.564;7.272;2023-07-31T07:49:50;20.20;99.90
831;DHT22;397;50.564;7.272;2023-07-31T07:52:17;20.10;99.90
831;DHT22;397;50.564;7.272;2023-07-31T07:54:45;20.20;99.90
831;DHT22;397;50.564;7.272;2023-07-31T07:57:12;20.30;99.90
831;DHT22;397;50.564;7.272;2023-07-31T07:59:41;19.90;99.90
831;DHT22;397;50.564;7.272;2023-07-31T08:02:08;20.00;99.90
831;DHT22;397;50.564;7.272;2023-07-31T08:04:36;19.80;99.90
831;DHT22;397;50.564;7.272;2023-07-31T08:07:03;19.70;99.90
831;DHT22;397;50.564;7.272;2023-07-31T08:09:31;19.60;99.90
831;DHT22;397;50.564;7.272;2023-07-31T08:11:59;19.50;99.90
831;DHT22;397;50.564;7.272;2023-07-31T08:14:28;19.40;99.90
831;DHT22;397;50.564;7.272;2023-07-31T08:16:56;19.30;99.90
831;DHT22;397;50.564;7.272;2023-07-31T08:19:23;19.30;99.90
831;DHT22;397;50.564;7.272;2023-07-31T08:21:51;19.30;99.90
831;DHT22;397;50.564;7.272;2023-07-31T08:24:18;19.30;99.90
831;DHT22;397;50.564;7.272;2023-07-31T08:26:46;19.30;99.90
831;DHT22;397;50.564;7.272;2023-07-31T08:29:14;19.20;99.90
831;DHT22;397;50.564;7.272;2023-07-31T08:31:42;19.20;99.90
831;DHT22;397;50.564;7.272;2023-07-31T08:34:09;19.30;99.90
831;DHT22;397;50.564;7.272;2023-07-31T08:36:37;19.50;99.90
831;DHT22;397;50.564;7.272;2023-07-31T08:39:04;19.60;99.90
831;DHT22;397;50.564;7.272;2023-07-31T08:41:37;19.50;99.90
831;DHT22;397;50.564;7.272;2023-07-31T08:44:10;19.40;99.90
831;DHT22;397;50.564;7.272;2023-07-31T08:46:39;19.30;99.90
831;DHT22;397;50.564;7.272;2023-07-31T08:49:08;19.30;99.90
831;DHT22;397;50.564;7.272;2023-07-31T08:51:36;19.30;99.90
831;DHT22;397;50.564;7.272;2023-07-31T08:54:04;19.20;99.90
831;DHT22;397;50.564;7.272;2023-07-31T08:56:34;19.10;99.90
831;DHT22;397;50.564;7.272;2023-07-31T08:59:04;19.10;99.90
831;DHT22;397;50.564;7.272;2023-07-31T09:01:35;19.20;99.90
831;DHT22;397;50.564;7.272;2023-07-31T09:04:03;19.30;99.90
831;DHT22;397;50.564;7.272;2023-07-31T09:06:32;19.30;99.90
831;DHT22;397;50.564;7.272;2023-07-31T09:09:01;19.50;99.90
831;DHT22;397;50.564;7.272;2023-07-31T09:11:28;19.50;99.90
831;DHT22;397;50.564;7.272;2023-07-31T09:13:58;19.60;99.90
831;DHT22;397;50.564;7.272;2023-07-31T09:16:30;19.70;99.90
831;DHT22;397;50.564;7.272;2023-07-31T09:18:58;19.50;99.90
831;DHT22;397;50.564;7.272;2023-07-31T09:21:27;19.60;99.90
831;DHT22;397;50.564;7.272;2023-07-31T09:23:55;19.70;99.90
831;DHT22;397;50.564;7.272;2023-07-31T09:26:34;19.70;99.90
831;DHT22;397;50.564;7.272;2023-07-31T09:29:04;19.70;99.90
831;DHT22;397;50.564;7.272;2023-07-31T09:31:33;19.60;99.90
831;DHT22;397;50.564;7.272;2023-07-31T09:34:01;19.70;99.90
831;DHT22;397;50.564;7.272;2023-07-31T09:36:31;19.70;99.90
831;DHT22;397;50.564;7.272;2023-07-31T09:39:03;19.80;99.90
831;DHT22;397;50.564;7.272;2023-07-31T09:41:31;19.80;99.90
831;DHT22;397;50.564;7.272;2023-07-31T09:44:00;19.90;99.90
831;DHT22;397;50.564;7.272;2023-07-31T09:46:28;20.10;99.90
831;DHT22;397;50.564;7.272;2023-07-31T09:49:09;20.20;99.90
831;DHT22;397;50.564;7.272;2023-07-31T09:51:38;20.20;99.90
831;DHT22;397;50.564;7.272;2023-07-31T09:54:13;20.00;99.90
831;DHT22;397;50.564;7.272;2023-07-31T09:56:43;20.00;99.90
831;DHT22;397;50.564;7.272;2023-07-31T09:59:14;20.00;99.90
831;DHT22;397;50.564;7.272;2023-07-31T10:01:42;19.90;99.90
831;DHT22;397;50.564;7.272;2023-07-31T10:04:11;19.90;99.90
831;DHT22;397;50.564;7.272;2023-07-31T10:06:40;20.00;99.90
831;DHT22;397;50.564;7.272;2023-07-31T10:09:10;20.00;99.90
831;DHT22;397;50.564;7.272;2023-07-31T10:11:46;20.00;99.90
831;DHT22;397;50.564;7.272;2023-07-31T10:14:12;20.10;99.90
831;DHT22;397;50.564;7.272;2023-07-31T10:16:40;20.00;99.90
831;DHT22;397;50.564;7.272;2023-07-31T10:19:10;20.20;99.90
831;DHT22;397;50.564;7.272;2023-07-31T10:21:38;20.10;99.90
831;DHT22;397;50.564;7.272;2023-07-31T10:24:06;20.10;99.90
831;DHT22;397;50.564;7.272;2023-07-31T10:26:36;20.00;99.90
831;DHT22;397;50.564;7.272;2023-07-31T10:29:05;20.00;99.90
831;DHT22;397;50.564;7.272;2023-07-31T10:31:34;20.00;99.90
831;DHT22;397;50.564;7.272;2023-07-31T10:34:02;20.10;99.90
831;DHT22;397;50.564;7.272;2023-07-31T10:36:30;20.20;99.90
831;DHT22;397;50.564;7.272;2023-07-31T10:38:57;20.20;99.90
831;DHT22;397;50.564;7.272;2023-07-31T10:41:30;20.30;99.90
831;DHT22;397;50.564;7.272;2023-07-31T10:44:00;20.50;99.90
831;DHT22;397;50.564;7.272;2023-07-31T10:46:28;20.60;99.90
831;DHT22;397;50.564;7.272;2023-07-31T10:49:03;20.80;99.90
831;DHT22;397;50.564;7.272;2023-07-31T10:51:34;20.80;99.90
831;DHT22;397;50.564;7.272;2023-07-31T10:54:16;20.80;99.90
831;DHT22;397;50.564;7.272;2023-07-31T10:56:46;20.80;99.90
831;DHT22;397;50.564;7.272;2023-07-31T10:59:15;20.80;99.90
831;DHT22;397;50.564;7.272;2023-07-31T11:01:51;20.90;99.90
831;DHT22;397;50.564;7.272;2023-07-31T11:04:23;21.00;99.90
831;DHT22;397;50.564;7.272;2023-07-31T11:06:59;21.10;99.90
831;DHT22;397;50.564;7.272;2023-07-31T11:09:29;21.20;99.90
831;DHT22;397;50.564;7.272;2023-07-31T11:11:58;21.30;99.90
831;DHT22;397;50.564;7.272;2023-07-31T11:14:26;21.30;99.90
831;DHT22;397;50.564;7.272;2023-07-31T11:16:53;21.50;99.90
831;DHT22;397;50.564;7.272;2023-07-31T11:19:24;21.60;99.90
831;DHT22;397;50.564;7.272;2023-07-31T11:21:53;21.80;99.90
831;DHT22;397;50.564;7.272;2023-07-31T11:24:21;21.90;99.90
831;DHT22;397;50.564;7.272;2023-07-31T11:26:52;22.00;99.90
831;DHT22;397;50.564;7.272;2023-07-31T11:29:21;22.10;99.90
831;DHT22;397;50.564;7.272;2023-07-31T11:31:50;22.20;99.90
831;DHT22;397;50.564;7.272;2023-07-31T11:34:18;22.20;99.90
831;DHT22;397;50.564;7.272;2023-07-31T11:36:56;22.10;99.90
831;DHT22;397;50.564;7.272;2023-07-31T11:39:23;22.10;99.90
831;DHT22;397;50.564;7.272;2023-07-31T11:41:51;22.20;99.90
831;DHT22;397;50.564;7.272;2023-07-31T11:44:18;22.50;99.90
831;DHT22;397;50.564;7.272;2023-07-31T11:46:46;22.80;99.90
831;DHT22;397;50.564;7.272;2023-07-31T11:49:15;22.90;99.90
831;DHT22;397;50.564;7.272;2023-07-31T11:51:43;22.90;99.90
831;DHT22;397;50.564;7.272;2023-07-31T11:54:10;22.90;99.90
831;DHT22;397;50.564;7.272;2023-07-31T11:56:40;22.70;99.90
831;DHT22;397;50.564;7.272;2023-07-31T11:59:08;22.50;99.90
831;DHT22;397;50.564;7.272;2023-07-31T12:01:35;22.70;99.90
831;DHT22;397;50.564;7.272;2023-07-31T12:04:03;22.80;99.90
831;DHT22;397;50.564;7.272;2023-07-31T12:06:35;22.90;99.90
831;DHT22;397;50.564;7.272;2023-07-31T12:09:04;23.00;99.90
831;DHT22;397;50.564;7.272;2023-07-31T12:11:42;23.10;99.90
831;DHT22;397;50.564;7.272;2023-07-31T12:14:01;23.20;99.90
831;DHT22;397;50.564;7.272;2023-07-31T12:16:30;23.40;99.90
831;DHT22;397;50.564;7.272;2023-07-31T12:18:57;23.60;99.90
831;DHT22;397;50.564;7.272;2023-07-31T12:21:27;23.80;99.90
831;DHT22;397;50.564;7.272;2023-07-31T12:23:54;23.80;99.90
831;DHT22;397;50.564;7.272;2023-07-31T12:26:22;23.60;99.90
831;DHT22;397;50.564;7.272;2023-07-31T12:28:54;23.40;99.90
831;DHT22;397;50.564;7.272;2023-07-31T12:31:23;23.60;99.90
831;DHT22;397;50.564;7.272;2023-07-31T12:33:51;23.60;99.90
831;DHT22;397;50.564;7.272;2023-07-31T12:36:21;23.50;99.90
831;DHT22;397;50.564;7.272;2023-07-31T12:38:50;23.60;99.90
831;DHT22;397;50.564;7.272;2023-07-31T12:41:18;23.50;99.90
831;DHT22;397;50.564;7.272;2023-07-31T12:43:46;23.60;99.90
831;DHT22;397;50.564;7.272;2023-07-31T12:46:13;23.80;99.90
831;DHT22;397;50.564;7.272;2023-07-31T12:48:42;23.70;99.90
831;DHT22;397;50.564;7.272;2023-07-31T12:51:09;23.40;99.90
831;DHT22;397;50.564;7.272;2023-07-31T12:53:37;23.50;99.90
831;DHT22;397;50.564;7.272;2023-07-31T12:56:04;23.50;99.90
831;DHT22;397;50.564;7.272;2023-07-31T12:58:32;23.40;99.90
831;DHT22;397;50.564;7.272;2023-07-31T13:00:59;23.30;99.90
831;DHT22;397;50.564;7.272;2023-07-31T13:03:28;23.10;99.90
831;DHT22;397;50.564;7.272;2023-07-31T13:05:56;22.90;99.90
831;DHT22;397;50.564;7.272;2023-07-31T13:08:23;22.60;99.90
831;DHT22;397;50.564;7.272;2023-07-31T13:10:51;22.60;99.90
831;DHT22;397;50.564;7.272;2023-07-31T13:13:18;22.60;99.90
831;DHT22;397;50.564;7.272;2023-07-31T13:15:46;22.50;99.90
831;DHT22;397;50.564;7.272;2023-07-31T13:18:13;22.40;99.90
831;DHT22;397;50.564;7.272;2023-07-31T13:20:41;22.50;99.90
831;DHT22;397;50.564;7.272;2023-07-31T13:23:08;22.50;99.90
831;DHT22;397;50.564;7.272;2023-07-31T13:25:36;22.50;99.90
831;DHT22;397;50.564;7.272;2023-07-31T13:28:04;22.50;99.90
831;DHT22;397;50.564;7.272;2023-07-31T13:30:32;22.30;99.90
831;DHT22;397;50.564;7.272;2023-07-31T13:33:00;22.10;99.90
831;DHT22;397;50.564;7.272;2023-07-31T13:35:27;22.00;99.90
831;DHT22;397;50.564;7.272;2023-07-31T13:37:55;22.20;99.90
831;DHT22;397;50.564;7.272;2023-07-31T13:40:22;22.30;99.90
831;DHT22;397;50.564;7.272;2023-07-31T13:42:50;22.30;99.90
831;DHT22;397;50.564;7.272;2023-07-31T13:45:17;22.40;99.90
831;DHT22;397;50.564;7.272;2023-07-31T13:47:45;22.40;99.90
831;DHT22;397;50.564;7.272;2023-07-31T13:50:12;22.50;99.90
831;DHT22;397;50.564;7.272;2023-07-31T13:52:40;22.30;99.90
831;DHT22;397;50.564;7.272;2023-07-31T13:55:08;22.10;99.90
831;DHT22;397;50.564;7.272;2023-07-31T13:57:35;22.00;99.90
831;DHT22;397;50.564;7.272;2023-07-31T14:00:03;22.10;99.90
831;DHT22;397;50.564;7.272;2023-07-31T14:02:31;22.10;99.90
831;DHT22;397;50.564;7.272;2023-07-31T14:04:58;22.30;99.90
831;DHT22;397;50.564;7.272;2023-07-31T14:07:26;22.30;99.90
831;DHT22;397;50.564;7.272;2023-07-31T14:09:53;22.10;99.90
831;DHT22;397;50.564;7.272;2023-07-31T14:12:21;21.90;99.90
831;DHT22;397;50.564;7.272;2023-07-31T14:14:49;22.10;99.90
831;DHT22;397;50.564;7.272;2023-07-31T14:17:16;22.30;99.90
831;DHT22;397;50.564;7.272;2023-07-31T14:19:44;22.20;99.90
831;DHT22;397;50.564;7.272;2023-07-31T14:22:11;22.30;99.90
831;DHT22;397;50.564;7.272;2023-07-31T14:24:39;22.10;99.90
831;DHT22;397;50.564;7.272;2023-07-31T14:27:06;21.90;99.90
831;DHT22;397;50.564;7.272;2023-07-31T14:29:35;21.70;99.90
831;DHT22;397;50.564;7.272;2023-07-31T14:32:03;21.70;99.90
831;DHT22;397;50.564;7.272;2023-07-31T14:34:31;21.60;99.90
831;DHT22;397;50.564;7.272;2023-07-31T14:36:58;21.50;99.90
831;DHT22;397;50.564;7.272;2023-07-31T14:39:26;21.50;99.90
831;DHT22;397;50.564;7.272;2023-07-31T14:41:53;21.40;99.90
831;DHT22;397;50.564;7.272;2023-07-31T14:44:21;21.40;99.90
831;DHT22;397;50.564;7.272;2023-07-31T14:46:48;21.40;99.90
831;DHT22;397;50.564;7.272;2023-07-31T14:49:18;21.40;99.90
831;DHT22;397;50.564;7.272;2023-07-31T14:51:45;21.20;99.90
831;DHT22;397;50.564;7.272;2023-07-31T14:54:13;21.20;99.90
831;DHT22;397;50.564;7.272;2023-07-31T14:56:40;21.10;99.90
831;DHT22;397;50.564;7.272;2023-07-31T14:59:08;21.10;99.90
831;DHT22;397;50.564;7.272;2023-07-31T15:01:36;21.00;99.90
831;DHT22;397;50.564;7.272;2023-07-31T15:04:04;21.10;99.90
831;DHT22;397;50.564;7.272;2023-07-31T15:06:31;21.10;99.90
831;DHT22;397;50.564;7.272;2023-07-31T15:08:59;21.10;99.90
831;DHT22;397;50.564;7.272;2023-07-31T15:11:26;21.20;99.90
831;DHT22;397;50.564;7.272;2023-07-31T15:13:54;21.10;99.90
831;DHT22;397;50.564;7.272;2023-07-31T15:16:21;21.10;99.90
831;DHT22;397;50.564;7.272;2023-07-31T15:18:49;21.10;99.90
831;DHT22;397;50.564;7.272;2023-07-31T15:21:16;21.20;99.90
831;DHT22;397;50.564;7.272;2023-07-31T15:23:44;21.20;99.90
831;DHT22;397;50.564;7.272;2023-07-31T15:26:11;21.20;99.90
831;DHT22;397;50.564;7.272;2023-07-31T15:28:39;21.10;99.90
831;DHT22;397;50.564;7.272;2023-07-31T15:31:07;21.10;99.90
831;DHT22;397;50.564;7.272;2023-07-31T15:33:34;21.10;99.90
831;DHT22;397;50.564;7.272;2023-07-31T15:36:02;21.20;99.90
831;DHT22;397;50.564;7.272;2023-07-31T15:38:29;21.20;99.90
831;DHT22;397;50.564;7.272;2023-07-31T15:40:57;21.10;99.90
831;DHT22;397;50.564;7.272;2023-07-31T15:43:25;21.20;99.90
831;DHT22;397;50.564;7.272;2023-07-31T15:45:52;21.30;99.90
831;DHT22;397;50.564;7.272;2023-07-31T15:48:20;21.40;99.90
831;DHT22;397;50.564;7.272;2023-07-31T15:50:47;21.40;99.90
831;DHT22;397;50.564;7.272;2023-07-31T15:53:34;21.30;99.90
831;DHT22;397;50.564;7.272;2023-07-31T15:56:02;21.20;99.90
831;DHT22;397;50.564;7.272;2023-07-31T15:58:29;21.10;99.90
831;DHT22;397;50.564;7.272;2023-07-31T16:00:57;20.90;99.90
831;DHT22;397;50.564;7.272;2023-07-31T16:03:25;20.90;99.90
831;DHT22;397;50.564;7.272;2023-07-31T16:05:52;20.80;99.90
831;DHT22;397;50.564;7.272;2023-07-31T16:08:20;20.80;99.90
831;DHT22;397;50.564;7.272;2023-07-31T16:10:47;20.70;99.90
831;DHT22;397;50.564;7.272;2023-07-31T16:13:15;20.60;99.90
831;DHT22;397;50.564;7.272;2023-07-31T16:15:42;20.60;99.90
831;DHT22;397;50.564;7.272;2023-07-31T16:18:10;20.60;99.90
831;DHT22;397;50.564;7.272;2023-07-31T16:20:38;20.60;99.90
831;DHT22;397;50.564;7.272;2023-07-31T16:23:05;20.50;99.90
831;DHT22;397;50.564;7.272;2023-07-31T16:25:33;20.50;99.90
831;DHT22;397;50.564;7.272;2023-07-31T16:28:01;20.60;99.90
831;DHT22;397;50.564;7.272;2023-07-31T16:30:28;20.50;99.90
831;DHT22;397;50.564;7.272;2023-07-31T16:32:56;20.50;99.90
831;DHT22;397;50.564;7.272;2023-07-31T16:35:24;20.60;99.90
831;DHT22;397;50.564;7.272;2023-07-31T16:37:51;20.50;99.90
831;DHT22;397;50.564;7.272;2023-07-31T16:40:19;20.50;99.90
831;DHT22;397;50.564;7.272;2023-07-31T16:42:46;20.50;99.90